sensor_id;sensor_type;location;lat;lon;timestamp;P1;durP1;ratioP1;P2;durP2;ratioP2
49592;SDS011;35499;51.482;4.264;2023-08-01T00:00:46;6.93;;;2.08;;
49592;SDS011;35499;51.482;4.264;2023-08-01T00:03:11;5.23;;;1.30;;
49592;SDS011;35499;51.482;4.264;2023-08-01T00:05:38;11.52;;;1.73;;
49592;SDS011;35499;51.482;4.264;2023-08-01T00:08:03;5.45;;;1.73;;
49592;SDS011;35499;51.482;4.264;2023-08-01T00:10:29;7.22;;;1.83;;
49592;SDS011;35499;51.482;4.264;2023-08-01T00:12:54;8.03;;;2.17;;
49592;SDS011;35499;51.482;4.264;2023-08-01T00:15:19;12.43;;;2.60;;
49592;SDS011;35499;51.482;4.264;2023-08-01T00:17:44;11.50;;;2.60;;
49592;SDS011;35499;51.482;4.264;2023-08-01T00:20:10;7.43;;;1.70;;
49592;SDS011;35499;51.482;4.264;2023-08-01T00:22:35;8.70;;;1.88;;
49592;SDS011;35499;51.482;4.264;2023-08-01T00:25:00;9.67;;;2.30;;
49592;SDS011;35499;51.482;4.264;2023-08-01T00:27:26;11.10;;;3.13;;
49592;SDS011;35499;51.482;4.264;2023-08-01T00:29:51;14.13;;;2.37;;
49592;SDS011;35499;51.482;4.264;2023-08-01T00:32:16;10.27;;;2.17;;
49592;SDS011;35499;51.482;4.264;2023-08-01T00:34:42;5.77;;;1.70;;
49592;SDS011;35499;51.482;4.264;2023-08-01T00:37:07;9.57;;;2.57;;
49592;SDS011;35499;51.482;4.264;2023-08-01T00:39:32;7.67;;;2.50;;
49592;SDS011;35499;51.482;4.264;2023-08-01T00:41:58;11.97;;;3.27;;
49592;SDS011;35499;51.482;4.264;2023-08-01T00:44:24;11.73;;;3.10;;
49592;SDS011;35499;51.482;4.264;2023-08-01T00:46:49;9.93;;;2.20;;
49592;SDS011;35499;51.482;4.264;2023-08-01T00:49:14;12.38;;;2.55;;
49592;SDS011;35499;51.482;4.264;2023-08-01T00:51:40;12.05;;;2.15;;
49592;SDS011;35499;51.482;4.264;2023-08-01T00:54:06;6.95;;;2.80;;
49592;SDS011;35499;51.482;4.264;2023-08-01T00:56:32;13.07;;;2.95;;
49592;SDS011;35499;51.482;4.264;2023-08-01T00:58:57;6.72;;;2.00;;
49592;SDS011;35499;51.482;4.264;2023-08-01T01:01:23;10.57;;;2.30;;
49592;SDS011;35499;51.482;4.264;2023-08-01T01:03:48;11.90;;;2.40;;
49592;SDS011;35499;51.482;4.264;2023-08-01T01:06:28;5.00;;;2.28;;
49592;SDS011;35499;51.482;4.264;2023-08-01T01:08:59;11.20;;;2.70;;
49592;SDS011;35499;51.482;4.264;2023-08-01T01:11:24;9.00;;;2.77;;
49592;SDS011;35499;51.482;4.264;2023-08-01T01:13:50;13.47;;;3.00;;
49592;SDS011;35499;51.482;4.264;2023-08-01T01:16:18;12.43;;;3.33;;
49592;SDS011;35499;51.482;4.264;2023-08-01T01:18:44;9.60;;;2.42;;
49592;SDS011;35499;51.482;4.264;2023-08-01T01:21:09;11.30;;;3.00;;
49592;SDS011;35499;51.482;4.264;2023-08-01T01:23:35;11.73;;;2.93;;
49592;SDS011;35499;51.482;4.264;2023-08-01T01:26:00;12.52;;;2.92;;
49592;SDS011;35499;51.482;4.264;2023-08-01T01:28:27;9.43;;;2.83;;
49592;SDS011;35499;51.482;4.264;2023-08-01T01:30:53;8.23;;;2.72;;
49592;SDS011;35499;51.482;4.264;2023-08-01T01:33:20;7.65;;;2.88;;
49592;SDS011;35499;51.482;4.264;2023-08-01T01:35:46;10.18;;;3.10;;
49592;SDS011;35499;51.482;4.264;2023-08-01T01:38:12;8.73;;;3.08;;
49592;SDS011;35499;51.482;4.264;2023-08-01T01:40:37;15.65;;;3.72;;
49592;SDS011;35499;51.482;4.264;2023-08-01T01:43:03;12.07;;;3.83;;
49592;SDS011;35499;51.482;4.264;2023-08-01T01:45:28;11.85;;;3.10;;
49592;SDS011;35499;51.482;4.264;2023-08-01T01:47:53;19.27;;;3.77;;
49592;SDS011;35499;51.482;4.264;2023-08-01T01:50:19;11.88;;;3.58;;
49592;SDS011;35499;51.482;4.264;2023-08-01T01:52:44;10.33;;;2.83;;
49592;SDS011;35499;51.482;4.264;2023-08-01T01:55:10;10.50;;;2.80;;
49592;SDS011;35499;51.482;4.264;2023-08-01T01:57:35;8.32;;;2.78;;
49592;SDS011;35499;51.482;4.264;2023-08-01T02:00:02;12.85;;;3.53;;
49592;SDS011;35499;51.482;4.264;2023-08-01T02:02:28;12.15;;;3.63;;
49592;SDS011;35499;51.482;4.264;2023-08-01T02:04:53;8.63;;;2.63;;
49592;SDS011;35499;51.482;4.264;2023-08-01T02:07:19;9.53;;;3.67;;
49592;SDS011;35499;51.482;4.264;2023-08-01T02:09:44;11.70;;;3.47;;
49592;SDS011;35499;51.482;4.264;2023-08-01T02:12:09;14.67;;;3.83;;
49592;SDS011;35499;51.482;4.264;2023-08-01T02:14:38;8.75;;;3.20;;
49592;SDS011;35499;51.482;4.264;2023-08-01T02:17:04;14.83;;;3.07;;
49592;SDS011;35499;51.482;4.264;2023-08-01T02:19:29;9.30;;;3.20;;
49592;SDS011;35499;51.482;4.264;2023-08-01T02:21:54;12.63;;;3.97;;
49592;SDS011;35499;51.482;4.264;2023-08-01T02:24:19;15.07;;;4.23;;
49592;SDS011;35499;51.482;4.264;2023-08-01T02:26:45;15.10;;;3.90;;
49592;SDS011;35499;51.482;4.264;2023-08-01T02:29:10;12.93;;;4.10;;
49592;SDS011;35499;51.482;4.264;2023-08-01T02:31:35;14.07;;;2.47;;
49592;SDS011;35499;51.482;4.264;2023-08-01T02:34:01;18.00;;;3.30;;
49592;SDS011;35499;51.482;4.264;2023-08-01T02:36:29;8.52;;;3.40;;
49592;SDS011;35499;51.482;4.264;2023-08-01T02:38:54;12.70;;;3.83;;
49592;SDS011;35499;51.482;4.264;2023-08-01T02:41:19;14.67;;;3.57;;
49592;SDS011;35499;51.482;4.264;2023-08-01T02:43:44;11.27;;;3.63;;
49592;SDS011;35499;51.482;4.264;2023-08-01T02:46:10;10.03;;;3.13;;
49592;SDS011;35499;51.482;4.264;2023-08-01T02:48:35;13.43;;;3.90;;
49592;SDS011;35499;51.482;4.264;2023-08-01T02:51:01;12.45;;;3.72;;
49592;SDS011;35499;51.482;4.264;2023-08-01T02:53:26;15.65;;;3.20;;
49592;SDS011;35499;51.482;4.264;2023-08-01T02:55:52;10.73;;;3.10;;
49592;SDS011;35499;51.482;4.264;2023-08-01T02:58:17;11.70;;;3.00;;
49592;SDS011;35499;51.482;4.264;2023-08-01T03:00:42;11.17;;;3.90;;
49592;SDS011;35499;51.482;4.264;2023-08-01T03:03:07;10.70;;;3.03;;
49592;SDS011;35499;51.482;4.264;2023-08-01T03:05:35;15.17;;;3.70;;
49592;SDS011;35499;51.482;4.264;2023-08-01T03:08:00;10.10;;;2.95;;
49592;SDS011;35499;51.482;4.264;2023-08-01T03:10:26;12.32;;;3.38;;
49592;SDS011;35499;51.482;4.264;2023-08-01T03:12:51;15.40;;;3.70;;
49592;SDS011;35499;51.482;4.264;2023-08-01T03:15:17;12.23;;;2.87;;
49592;SDS011;35499;51.482;4.264;2023-08-01T03:17:42;14.37;;;3.50;;
49592;SDS011;35499;51.482;4.264;2023-08-01T03:20:07;11.10;;;2.83;;
49592;SDS011;35499;51.482;4.264;2023-08-01T03:22:35;12.85;;;3.85;;
49592;SDS011;35499;51.482;4.264;2023-08-01T03:25:05;14.60;;;3.60;;
49592;SDS011;35499;51.482;4.264;2023-08-01T03:27:32;7.93;;;3.15;;
49592;SDS011;35499;51.482;4.264;2023-08-01T03:29:58;12.43;;;3.88;;
49592;SDS011;35499;51.482;4.264;2023-08-01T03:32:23;10.65;;;3.47;;
49592;SDS011;35499;51.482;4.264;2023-08-01T03:34:49;13.10;;;3.00;;
49592;SDS011;35499;51.482;4.264;2023-08-01T03:37:14;14.70;;;4.37;;
49592;SDS011;35499;51.482;4.264;2023-08-01T03:39:40;11.00;;;3.08;;
49592;SDS011;35499;51.482;4.264;2023-08-01T03:42:05;13.50;;;2.87;;
49592;SDS011;35499;51.482;4.264;2023-08-01T03:44:31;6.97;;;2.17;;
49592;SDS011;35499;51.482;4.264;2023-08-01T03:46:57;20.92;;;3.97;;
49592;SDS011;35499;51.482;4.264;2023-08-01T03:49:22;15.00;;;3.77;;
49592;SDS011;35499;51.482;4.264;2023-08-01T03:51:47;9.48;;;2.50;;
49592;SDS011;35499;51.482;4.264;2023-08-01T03:54:13;11.43;;;3.05;;
49592;SDS011;35499;51.482;4.264;2023-08-01T03:56:38;9.83;;;3.33;;
49592;SDS011;35499;51.482;4.264;2023-08-01T03:59:04;9.05;;;2.85;;
49592;SDS011;35499;51.482;4.264;2023-08-01T04:01:30;10.15;;;2.88;;
49592;SDS011;35499;51.482;4.264;2023-08-01T04:03:55;9.70;;;3.05;;
49592;SDS011;35499;51.482;4.264;2023-08-01T04:06:20;10.23;;;2.77;;
49592;SDS011;35499;51.482;4.264;2023-08-01T04:08:45;21.23;;;4.33;;
49592;SDS011;35499;51.482;4.264;2023-08-01T04:11:11;12.83;;;2.83;;
49592;SDS011;35499;51.482;4.264;2023-08-01T04:13:36;11.03;;;3.13;;
49592;SDS011;35499;51.482;4.264;2023-08-01T04:16:01;9.48;;;2.85;;
49592;SDS011;35499;51.482;4.264;2023-08-01T04:18:27;12.70;;;3.43;;
49592;SDS011;35499;51.482;4.264;2023-08-01T04:20:52;14.07;;;3.97;;
49592;SDS011;35499;51.482;4.264;2023-08-01T04:23:17;9.87;;;3.27;;
49592;SDS011;35499;51.482;4.264;2023-08-01T04:25:43;7.03;;;2.40;;
49592;SDS011;35499;51.482;4.264;2023-08-01T04:28:08;10.80;;;2.37;;
49592;SDS011;35499;51.482;4.264;2023-08-01T04:30:33;7.27;;;2.77;;
49592;SDS011;35499;51.482;4.264;2023-08-01T04:32:58;11.13;;;2.77;;
49592;SDS011;35499;51.482;4.264;2023-08-01T04:35:24;10.07;;;2.90;;
49592;SDS011;35499;51.482;4.264;2023-08-01T04:37:49;9.17;;;2.10;;
49592;SDS011;35499;51.482;4.264;2023-08-01T04:40:14;12.00;;;2.33;;
49592;SDS011;35499;51.482;4.264;2023-08-01T04:42:40;10.47;;;3.17;;
49592;SDS011;35499;51.482;4.264;2023-08-01T04:45:05;12.67;;;2.93;;
49592;SDS011;35499;51.482;4.264;2023-08-01T04:47:32;9.98;;;2.90;;
49592;SDS011;35499;51.482;4.264;2023-08-01T04:49:57;10.85;;;2.53;;
49592;SDS011;35499;51.482;4.264;2023-08-01T04:52:22;9.53;;;2.63;;
49592;SDS011;35499;51.482;4.264;2023-08-01T04:54:47;7.80;;;2.20;;
49592;SDS011;35499;51.482;4.264;2023-08-01T04:57:13;8.77;;;2.37;;
49592;SDS011;35499;51.482;4.264;2023-08-01T04:59:38;12.70;;;3.43;;
49592;SDS011;35499;51.482;4.264;2023-08-01T05:02:03;12.87;;;2.80;;
49592;SDS011;35499;51.482;4.264;2023-08-01T05:04:29;13.48;;;3.35;;
49592;SDS011;35499;51.482;4.264;2023-08-01T05:06:54;12.17;;;2.87;;
49592;SDS011;35499;51.482;4.264;2023-08-01T05:09:19;11.83;;;2.77;;
49592;SDS011;35499;51.482;4.264;2023-08-01T05:11:45;10.10;;;2.37;;
49592;SDS011;35499;51.482;4.264;2023-08-01T05:14:10;8.30;;;2.40;;
49592;SDS011;35499;51.482;4.264;2023-08-01T05:16:35;7.30;;;2.13;;
49592;SDS011;35499;51.482;4.264;2023-08-01T05:19:00;12.10;;;2.50;;
49592;SDS011;35499;51.482;4.264;2023-08-01T05:21:26;6.73;;;2.50;;
49592;SDS011;35499;51.482;4.264;2023-08-01T05:23:51;8.13;;;2.27;;
49592;SDS011;35499;51.482;4.264;2023-08-01T05:26:16;7.80;;;2.23;;
49592;SDS011;35499;51.482;4.264;2023-08-01T05:28:41;6.43;;;1.90;;
49592;SDS011;35499;51.482;4.264;2023-08-01T05:31:07;10.20;;;2.50;;
49592;SDS011;35499;51.482;4.264;2023-08-01T05:33:32;5.77;;;2.77;;
49592;SDS011;35499;51.482;4.264;2023-08-01T05:35:57;6.30;;;2.70;;
49592;SDS011;35499;51.482;4.264;2023-08-01T05:38:22;6.97;;;1.80;;
49592;SDS011;35499;51.482;4.264;2023-08-01T05:40:48;8.97;;;1.67;;
49592;SDS011;35499;51.482;4.264;2023-08-01T05:43:13;5.50;;;1.98;;
49592;SDS011;35499;51.482;4.264;2023-08-01T05:45:38;8.27;;;1.80;;
49592;SDS011;35499;51.482;4.264;2023-08-01T05:48:04;7.80;;;1.80;;
49592;SDS011;35499;51.482;4.264;2023-08-01T05:50:29;6.47;;;1.95;;
49592;SDS011;35499;51.482;4.264;2023-08-01T05:52:55;5.60;;;1.70;;
49592;SDS011;35499;51.482;4.264;2023-08-01T05:55:20;7.93;;;2.40;;
49592;SDS011;35499;51.482;4.264;2023-08-01T05:57:46;7.70;;;1.90;;
49592;SDS011;35499;51.482;4.264;2023-08-01T06:00:11;8.88;;;2.13;;
49592;SDS011;35499;51.482;4.264;2023-08-01T06:02:37;5.75;;;1.77;;
49592;SDS011;35499;51.482;4.264;2023-08-01T06:05:02;9.43;;;1.93;;
49592;SDS011;35499;51.482;4.264;2023-08-01T06:07:28;9.63;;;1.92;;
49592;SDS011;35499;51.482;4.264;2023-08-01T06:09:54;9.85;;;2.22;;
49592;SDS011;35499;51.482;4.264;2023-08-01T06:12:19;7.90;;;2.00;;
49592;SDS011;35499;51.482;4.264;2023-08-01T06:14:44;11.60;;;2.67;;
49592;SDS011;35499;51.482;4.264;2023-08-01T06:17:10;8.88;;;2.28;;
49592;SDS011;35499;51.482;4.264;2023-08-01T06:19:35;10.50;;;2.93;;
49592;SDS011;35499;51.482;4.264;2023-08-01T06:22:00;11.40;;;2.73;;
49592;SDS011;35499;51.482;4.264;2023-08-01T06:24:26;9.27;;;2.97;;
49592;SDS011;35499;51.482;4.264;2023-08-01T06:26:51;9.27;;;1.83;;
49592;SDS011;35499;51.482;4.264;2023-08-01T06:29:16;9.00;;;1.87;;
49592;SDS011;35499;51.482;4.264;2023-08-01T06:31:41;10.00;;;2.50;;
49592;SDS011;35499;51.482;4.264;2023-08-01T06:34:07;8.70;;;2.77;;
49592;SDS011;35499;51.482;4.264;2023-08-01T06:36:32;13.40;;;3.00;;
49592;SDS011;35499;51.482;4.264;2023-08-01T06:38:57;7.63;;;2.40;;
49592;SDS011;35499;51.482;4.264;2023-08-01T06:41:22;8.07;;;2.50;;
49592;SDS011;35499;51.482;4.264;2023-08-01T06:43:48;9.53;;;1.93;;
49592;SDS011;35499;51.482;4.264;2023-08-01T06:46:13;11.10;;;2.67;;
49592;SDS011;35499;51.482;4.264;2023-08-01T06:48:38;8.47;;;2.20;;
49592;SDS011;35499;51.482;4.264;2023-08-01T06:51:03;12.13;;;2.30;;
49592;SDS011;35499;51.482;4.264;2023-08-01T06:53:29;11.93;;;2.30;;
49592;SDS011;35499;51.482;4.264;2023-08-01T06:55:54;17.57;;;3.13;;
49592;SDS011;35499;51.482;4.264;2023-08-01T06:58:19;9.65;;;2.00;;
49592;SDS011;35499;51.482;4.264;2023-08-01T07:00:45;9.57;;;2.90;;
49592;SDS011;35499;51.482;4.264;2023-08-01T07:03:10;4.60;;;1.10;;
49592;SDS011;35499;51.482;4.264;2023-08-01T07:05:35;6.63;;;1.67;;
49592;SDS011;35499;51.482;4.264;2023-08-01T07:08:00;5.43;;;1.37;;
49592;SDS011;35499;51.482;4.264;2023-08-01T07:10:26;5.60;;;1.55;;
49592;SDS011;35499;51.482;4.264;2023-08-01T07:12:51;8.37;;;1.30;;
49592;SDS011;35499;51.482;4.264;2023-08-01T07:15:16;7.63;;;1.50;;
49592;SDS011;35499;51.482;4.264;2023-08-01T07:17:42;5.73;;;1.70;;
49592;SDS011;35499;51.482;4.264;2023-08-01T07:20:07;6.53;;;1.77;;
49592;SDS011;35499;51.482;4.264;2023-08-01T07:22:33;5.88;;;1.88;;
49592;SDS011;35499;51.482;4.264;2023-08-01T07:24:58;5.03;;;1.40;;
49592;SDS011;35499;51.482;4.264;2023-08-01T07:27:23;8.63;;;1.60;;
49592;SDS011;35499;51.482;4.264;2023-08-01T07:29:49;8.00;;;1.83;;
49592;SDS011;35499;51.482;4.264;2023-08-01T07:32:14;7.40;;;1.43;;
49592;SDS011;35499;51.482;4.264;2023-08-01T07:34:39;6.22;;;2.08;;
49592;SDS011;35499;51.482;4.264;2023-08-01T07:37:05;6.60;;;1.83;;
49592;SDS011;35499;51.482;4.264;2023-08-01T07:39:30;6.10;;;1.70;;
49592;SDS011;35499;51.482;4.264;2023-08-01T07:41:56;7.85;;;2.30;;
49592;SDS011;35499;51.482;4.264;2023-08-01T07:44:21;8.38;;;2.10;;
49592;SDS011;35499;51.482;4.264;2023-08-01T07:46:47;11.45;;;3.10;;
49592;SDS011;35499;51.482;4.264;2023-08-01T07:49:12;9.40;;;1.92;;
49592;SDS011;35499;51.482;4.264;2023-08-01T07:51:37;7.83;;;2.40;;
49592;SDS011;35499;51.482;4.264;2023-08-01T07:54:03;6.63;;;1.50;;
49592;SDS011;35499;51.482;4.264;2023-08-01T07:56:28;9.33;;;1.90;;
49592;SDS011;35499;51.482;4.264;2023-08-01T07:58:53;7.03;;;1.90;;
49592;SDS011;35499;51.482;4.264;2023-08-01T08:01:18;6.70;;;1.63;;
49592;SDS011;35499;51.482;4.264;2023-08-01T08:03:44;12.37;;;2.57;;
49592;SDS011;35499;51.482;4.264;2023-08-01T08:06:09;9.20;;;2.00;;
49592;SDS011;35499;51.482;4.264;2023-08-01T08:08:34;6.93;;;1.67;;
49592;SDS011;35499;51.482;4.264;2023-08-01T08:11:01;7.50;;;1.63;;
49592;SDS011;35499;51.482;4.264;2023-08-01T08:13:27;7.18;;;2.08;;
49592;SDS011;35499;51.482;4.264;2023-08-01T08:15:54;9.60;;;1.73;;
49592;SDS011;35499;51.482;4.264;2023-08-01T08:18:21;5.78;;;1.77;;
49592;SDS011;35499;51.482;4.264;2023-08-01T08:20:47;6.30;;;1.77;;
49592;SDS011;35499;51.482;4.264;2023-08-01T08:23:12;9.43;;;2.70;;
49592;SDS011;35499;51.482;4.264;2023-08-01T08:25:43;12.25;;;1.83;;
49592;SDS011;35499;51.482;4.264;2023-08-01T08:28:27;9.77;;;1.67;;
49592;SDS011;35499;51.482;4.264;2023-08-01T08:30:56;7.15;;;1.67;;
49592;SDS011;35499;51.482;4.264;2023-08-01T08:33:21;4.85;;;0.93;;
49592;SDS011;35499;51.482;4.264;2023-08-01T08:35:47;7.63;;;1.98;;
49592;SDS011;35499;51.482;4.264;2023-08-01T08:38:13;9.05;;;2.33;;
49592;SDS011;35499;51.482;4.264;2023-08-01T08:40:40;9.97;;;1.63;;
49592;SDS011;35499;51.482;4.264;2023-08-01T08:43:08;9.05;;;1.58;;
49592;SDS011;35499;51.482;4.264;2023-08-01T08:45:35;9.85;;;2.38;;
49592;SDS011;35499;51.482;4.264;2023-08-01T08:48:02;6.38;;;1.70;;
49592;SDS011;35499;51.482;4.264;2023-08-01T08:50:34;7.78;;;1.92;;
49592;SDS011;35499;51.482;4.264;2023-08-01T08:53:00;9.23;;;1.63;;
49592;SDS011;35499;51.482;4.264;2023-08-01T08:55:26;6.68;;;1.35;;
49592;SDS011;35499;51.482;4.264;2023-08-01T08:57:53;5.47;;;2.35;;
49592;SDS011;35499;51.482;4.264;2023-08-01T09:04:33;7.13;;;1.48;;
49592;SDS011;35499;51.482;4.264;2023-08-01T09:07:01;7.60;;;1.55;;
49592;SDS011;35499;51.482;4.264;2023-08-01T09:09:31;6.85;;;1.70;;
49592;SDS011;35499;51.482;4.264;2023-08-01T09:11:57;5.55;;;1.38;;
49592;SDS011;35499;51.482;4.264;2023-08-01T09:14:23;7.72;;;1.88;;
49592;SDS011;35499;51.482;4.264;2023-08-01T09:16:48;8.70;;;2.55;;
49592;SDS011;35499;51.482;4.264;2023-08-01T09:19:21;7.13;;;1.80;;
49592;SDS011;35499;51.482;4.264;2023-08-01T09:21:48;5.97;;;1.05;;
49592;SDS011;35499;51.482;4.264;2023-08-01T09:24:15;7.35;;;1.33;;
49592;SDS011;35499;51.482;4.264;2023-08-01T09:26:42;6.20;;;1.10;;
49592;SDS011;35499;51.482;4.264;2023-08-01T09:29:08;7.07;;;0.98;;
49592;SDS011;35499;51.482;4.264;2023-08-01T09:31:38;5.28;;;1.38;;
49592;SDS011;35499;51.482;4.264;2023-08-01T09:34:06;9.10;;;1.10;;
49592;SDS011;35499;51.482;4.264;2023-08-01T09:36:42;5.13;;;1.35;;
49592;SDS011;35499;51.482;4.264;2023-08-01T09:39:08;3.63;;;0.87;;
49592;SDS011;35499;51.482;4.264;2023-08-01T09:41:33;6.30;;;1.63;;
49592;SDS011;35499;51.482;4.264;2023-08-01T09:43:58;4.78;;;1.35;;
49592;SDS011;35499;51.482;4.264;2023-08-01T09:46:24;8.65;;;1.52;;
49592;SDS011;35499;51.482;4.264;2023-08-01T09:48:50;7.20;;;1.38;;
49592;SDS011;35499;51.482;4.264;2023-08-01T09:51:16;7.23;;;1.97;;
49592;SDS011;35499;51.482;4.264;2023-08-01T09:53:54;6.22;;;1.42;;
49592;SDS011;35499;51.482;4.264;2023-08-01T09:56:21;4.93;;;1.42;;
49592;SDS011;35499;51.482;4.264;2023-08-01T09:58:51;7.60;;;1.45;;
49592;SDS011;35499;51.482;4.264;2023-08-01T10:01:18;7.90;;;1.25;;
49592;SDS011;35499;51.482;4.264;2023-08-01T10:03:46;6.85;;;1.35;;
49592;SDS011;35499;51.482;4.264;2023-08-01T10:06:14;6.97;;;1.33;;
49592;SDS011;35499;51.482;4.264;2023-08-01T10:08:47;6.18;;;1.30;;
49592;SDS011;35499;51.482;4.264;2023-08-01T10:11:14;7.18;;;1.50;;
49592;SDS011;35499;51.482;4.264;2023-08-01T10:13:41;4.55;;;1.02;;
49592;SDS011;35499;51.482;4.264;2023-08-01T10:16:08;7.93;;;1.60;;
49592;SDS011;35499;51.482;4.264;2023-08-01T10:18:33;6.85;;;1.73;;
49592;SDS011;35499;51.482;4.264;2023-08-01T10:20:59;6.30;;;1.40;;
49592;SDS011;35499;51.482;4.264;2023-08-01T10:23:25;6.20;;;1.80;;
49592;SDS011;35499;51.482;4.264;2023-08-01T10:25:51;6.90;;;1.20;;
49592;SDS011;35499;51.482;4.264;2023-08-01T10:28:18;5.72;;;1.80;;
49592;SDS011;35499;51.482;4.264;2023-08-01T10:30:43;7.63;;;1.27;;
49592;SDS011;35499;51.482;4.264;2023-08-01T10:33:08;8.48;;;1.20;;
49592;SDS011;35499;51.482;4.264;2023-08-01T10:35:38;5.53;;;1.38;;
49592;SDS011;35499;51.482;4.264;2023-08-01T10:38:05;7.15;;;1.27;;
49592;SDS011;35499;51.482;4.264;2023-08-01T10:40:34;7.75;;;1.50;;
49592;SDS011;35499;51.482;4.264;2023-08-01T10:43:03;6.78;;;1.38;;
49592;SDS011;35499;51.482;4.264;2023-08-01T10:45:29;12.20;;;2.42;;
49592;SDS011;35499;51.482;4.264;2023-08-01T10:48:05;6.95;;;2.28;;
49592;SDS011;35499;51.482;4.264;2023-08-01T10:50:32;5.25;;;1.30;;
49592;SDS011;35499;51.482;4.264;2023-08-01T10:53:07;6.20;;;1.48;;
49592;SDS011;35499;51.482;4.264;2023-08-01T10:55:46;9.20;;;1.55;;
49592;SDS011;35499;51.482;4.264;2023-08-01T10:58:12;10.63;;;2.05;;
49592;SDS011;35499;51.482;4.264;2023-08-01T11:00:37;6.95;;;1.80;;
49592;SDS011;35499;51.482;4.264;2023-08-01T11:03:03;6.22;;;1.52;;
49592;SDS011;35499;51.482;4.264;2023-08-01T11:05:28;6.70;;;1.60;;
49592;SDS011;35499;51.482;4.264;2023-08-01T11:07:58;10.90;;;2.00;;
49592;SDS011;35499;51.482;4.264;2023-08-01T11:10:25;9.60;;;1.95;;
49592;SDS011;35499;51.482;4.264;2023-08-01T11:12:52;4.68;;;1.00;;
49592;SDS011;35499;51.482;4.264;2023-08-01T11:15:18;5.10;;;1.25;;
49592;SDS011;35499;51.482;4.264;2023-08-01T11:17:47;5.63;;;1.25;;
49592;SDS011;35499;51.482;4.264;2023-08-01T11:20:15;4.28;;;1.17;;
49592;SDS011;35499;51.482;4.264;2023-08-01T11:25:17;6.05;;;1.52;;
49592;SDS011;35499;51.482;4.264;2023-08-01T11:27:43;5.97;;;1.02;;
49592;SDS011;35499;51.482;4.264;2023-08-01T11:30:08;6.35;;;1.40;;
49592;SDS011;35499;51.482;4.264;2023-08-01T11:32:34;6.75;;;1.90;;
49592;SDS011;35499;51.482;4.264;2023-08-01T11:35:01;7.47;;;1.30;;
49592;SDS011;35499;51.482;4.264;2023-08-01T11:37:27;5.10;;;1.27;;
49592;SDS011;35499;51.482;4.264;2023-08-01T11:39:53;5.93;;;1.15;;
49592;SDS011;35499;51.482;4.264;2023-08-01T11:42:19;5.43;;;1.58;;
49592;SDS011;35499;51.482;4.264;2023-08-01T11:44:44;7.53;;;1.33;;
49592;SDS011;35499;51.482;4.264;2023-08-01T11:47:19;4.43;;;1.10;;
49592;SDS011;35499;51.482;4.264;2023-08-01T11:49:45;5.18;;;1.20;;
49592;SDS011;35499;51.482;4.264;2023-08-01T11:52:21;5.00;;;1.15;;
49592;SDS011;35499;51.482;4.264;2023-08-01T11:54:50;8.15;;;1.60;;
49592;SDS011;35499;51.482;4.264;2023-08-01T11:57:15;10.25;;;1.73;;
49592;SDS011;35499;51.482;4.264;2023-08-01T11:59:51;8.05;;;1.25;;
49592;SDS011;35499;51.482;4.264;2023-08-01T12:02:27;8.13;;;1.25;;
49592;SDS011;35499;51.482;4.264;2023-08-01T12:04:56;6.72;;;1.65;;
49592;SDS011;35499;51.482;4.264;2023-08-01T12:07:24;6.15;;;0.75;;
49592;SDS011;35499;51.482;4.264;2023-08-01T12:09:56;6.25;;;1.27;;
49592;SDS011;35499;51.482;4.264;2023-08-01T12:12:23;5.97;;;0.88;;
49592;SDS011;35499;51.482;4.264;2023-08-01T12:14:48;6.72;;;0.90;;
49592;SDS011;35499;51.482;4.264;2023-08-01T12:17:14;4.83;;;1.30;;
49592;SDS011;35499;51.482;4.264;2023-08-01T12:19:39;7.37;;;1.17;;
49592;SDS011;35499;51.482;4.264;2023-08-01T12:22:04;4.23;;;0.90;;
49592;SDS011;35499;51.482;4.264;2023-08-01T12:24:30;8.45;;;1.40;;
49592;SDS011;35499;51.482;4.264;2023-08-01T12:26:55;5.57;;;1.10;;
49592;SDS011;35499;51.482;4.264;2023-08-01T12:29:20;8.35;;;1.27;;
49592;SDS011;35499;51.482;4.264;2023-08-01T12:31:46;6.27;;;0.80;;
49592;SDS011;35499;51.482;4.264;2023-08-01T12:34:11;5.78;;;1.10;;
49592;SDS011;35499;51.482;4.264;2023-08-01T12:36:36;8.87;;;1.63;;
49592;SDS011;35499;51.482;4.264;2023-08-01T12:39:02;4.70;;;1.30;;
49592;SDS011;35499;51.482;4.264;2023-08-01T12:41:28;7.30;;;1.35;;
49592;SDS011;35499;51.482;4.264;2023-08-01T12:43:53;8.00;;;0.90;;
49592;SDS011;35499;51.482;4.264;2023-08-01T12:46:18;8.20;;;1.40;;
49592;SDS011;35499;51.482;4.264;2023-08-01T12:48:46;6.47;;;1.17;;
49592;SDS011;35499;51.482;4.264;2023-08-01T12:51:12;8.00;;;1.15;;
49592;SDS011;35499;51.482;4.264;2023-08-01T12:53:39;6.25;;;1.10;;
49592;SDS011;35499;51.482;4.264;2023-08-01T12:56:04;4.15;;;1.27;;
49592;SDS011;35499;51.482;4.264;2023-08-01T12:58:30;4.80;;;1.00;;
49592;SDS011;35499;51.482;4.264;2023-08-01T13:00:55;4.43;;;1.10;;
49592;SDS011;35499;51.482;4.264;2023-08-01T13:03:20;4.78;;;0.90;;
49592;SDS011;35499;51.482;4.264;2023-08-01T13:05:46;3.43;;;0.73;;
49592;SDS011;35499;51.482;4.264;2023-08-01T13:08:11;5.70;;;1.00;;
49592;SDS011;35499;51.482;4.264;2023-08-01T13:10:37;4.97;;;0.80;;
49592;SDS011;35499;51.482;4.264;2023-08-01T13:13:03;4.13;;;1.25;;
49592;SDS011;35499;51.482;4.264;2023-08-01T13:15:29;3.90;;;1.17;;
49592;SDS011;35499;51.482;4.264;2023-08-01T13:17:54;3.35;;;0.73;;
49592;SDS011;35499;51.482;4.264;2023-08-01T13:20:20;6.65;;;1.33;;
49592;SDS011;35499;51.482;4.264;2023-08-01T13:22:46;4.85;;;1.10;;
49592;SDS011;35499;51.482;4.264;2023-08-01T13:25:13;6.20;;;1.77;;
49592;SDS011;35499;51.482;4.264;2023-08-01T13:27:39;3.65;;;0.90;;
49592;SDS011;35499;51.482;4.264;2023-08-01T13:30:05;4.00;;;1.03;;
49592;SDS011;35499;51.482;4.264;2023-08-01T13:32:31;2.42;;;0.50;;
49592;SDS011;35499;51.482;4.264;2023-08-01T13:34:56;4.78;;;0.70;;
49592;SDS011;35499;51.482;4.264;2023-08-01T13:37:21;4.97;;;0.90;;
49592;SDS011;35499;51.482;4.264;2023-08-01T13:39:47;6.18;;;1.05;;
49592;SDS011;35499;51.482;4.264;2023-08-01T13:42:12;3.00;;;0.70;;
49592;SDS011;35499;51.482;4.264;2023-08-01T13:44:37;5.38;;;0.73;;
49592;SDS011;35499;51.482;4.264;2023-08-01T13:47:03;5.77;;;1.53;;
49592;SDS011;35499;51.482;4.264;2023-08-01T13:49:28;3.92;;;0.80;;
49592;SDS011;35499;51.482;4.264;2023-08-01T13:51:54;4.38;;;1.08;;
49592;SDS011;35499;51.482;4.264;2023-08-01T13:54:19;5.43;;;0.80;;
49592;SDS011;35499;51.482;4.264;2023-08-01T13:56:44;6.40;;;0.83;;
49592;SDS011;35499;51.482;4.264;2023-08-01T13:59:10;4.77;;;0.80;;
49592;SDS011;35499;51.482;4.264;2023-08-01T14:01:35;3.53;;;1.00;;
49592;SDS011;35499;51.482;4.264;2023-08-01T14:04:00;4.00;;;0.90;;
49592;SDS011;35499;51.482;4.264;2023-08-01T14:06:26;2.37;;;0.70;;
49592;SDS011;35499;51.482;4.264;2023-08-01T14:08:51;5.32;;;0.77;;
49592;SDS011;35499;51.482;4.264;2023-08-01T14:11:16;5.63;;;1.00;;
49592;SDS011;35499;51.482;4.264;2023-08-01T14:13:42;4.53;;;0.93;;
49592;SDS011;35499;51.482;4.264;2023-08-01T14:16:07;4.87;;;1.07;;
49592;SDS011;35499;51.482;4.264;2023-08-01T14:18:32;4.00;;;1.03;;
49592;SDS011;35499;51.482;4.264;2023-08-01T14:20:58;5.60;;;0.85;;
49592;SDS011;35499;51.482;4.264;2023-08-01T14:23:24;6.90;;;0.97;;
49592;SDS011;35499;51.482;4.264;2023-08-01T14:25:49;6.93;;;1.03;;
49592;SDS011;35499;51.482;4.264;2023-08-01T14:28:14;8.00;;;1.17;;
49592;SDS011;35499;51.482;4.264;2023-08-01T14:30:40;7.22;;;1.42;;
49592;SDS011;35499;51.482;4.264;2023-08-01T14:33:06;2.80;;;0.80;;
49592;SDS011;35499;51.482;4.264;2023-08-01T14:35:35;3.78;;;0.95;;
49592;SDS011;35499;51.482;4.264;2023-08-01T14:38:01;8.23;;;1.02;;
49592;SDS011;35499;51.482;4.264;2023-08-01T14:40:28;5.65;;;1.20;;
49592;SDS011;35499;51.482;4.264;2023-08-01T14:42:54;5.82;;;1.60;;